sensor_id;sensor_type;location;lat;lon;timestamp;P1;durP1;ratioP1;P2;durP2;ratioP2
18239;SDS011;9244;50.828;4.718;2023-11-22T00:00:19;1.03;;;1.03;;
18239;SDS011;9244;50.828;4.718;2023-11-22T00:02:45;0.80;;;0.70;;
18239;SDS011;9244;50.828;4.718;2023-11-22T00:05:12;0.60;;;0.60;;
18239;SDS011;9244;50.828;4.718;2023-11-22T00:07:38;0.70;;;0.70;;
18239;SDS011;9244;50.828;4.718;2023-11-22T00:10:04;0.73;;;0.73;;
18239;SDS011;9244;50.828;4.718;2023-11-22T00:12:30;2.27;;;2.17;;
18239;SDS011;9244;50.828;4.718;2023-11-22T00:15:05;0.20;;;0.20;;
18239;SDS011;9244;50.828;4.718;2023-11-22T00:17:32;2.00;;;1.90;;
18239;SDS011;9244;50.828;4.718;2023-11-22T00:19:59;1.60;;;1.50;;
18239;SDS011;9244;50.828;4.718;2023-11-22T00:22:31;0.97;;;0.97;;
18239;SDS011;9244;50.828;4.718;2023-11-22T00:24:57;1.10;;;1.00;;
18239;SDS011;9244;50.828;4.718;2023-11-22T00:27:23;2.43;;;1.23;;
18239;SDS011;9244;50.828;4.718;2023-11-22T00:29:50;0.17;;;0.17;;
18239;SDS011;9244;50.828;4.718;2023-11-22T00:32:17;1.93;;;1.83;;
18239;SDS011;9244;50.828;4.718;2023-11-22T00:34:44;0.20;;;0.20;;
18239;SDS011;9244;50.828;4.718;2023-11-22T00:37:09;1.07;;;1.00;;
18239;SDS011;9244;50.828;4.718;2023-11-22T00:39:38;0.93;;;0.93;;
18239;SDS011;9244;50.828;4.718;2023-11-22T00:42:06;1.07;;;1.07;;
18239;SDS011;9244;50.828;4.718;2023-11-22T00:44:34;2.07;;;1.40;;
18239;SDS011;9244;50.828;4.718;2023-11-22T00:47:01;0.50;;;0.50;;
18239;SDS011;9244;50.828;4.718;2023-11-22T00:49:27;0.60;;;0.60;;
18239;SDS011;9244;50.828;4.718;2023-11-22T00:51:52;1.70;;;1.63;;
18239;SDS011;9244;50.828;4.718;2023-11-22T00:54:18;0.50;;;0.50;;
18239;SDS011;9244;50.828;4.718;2023-11-22T00:56:45;0.50;;;0.50;;
18239;SDS011;9244;50.828;4.718;2023-11-22T00:59:11;2.40;;;2.27;;
18239;SDS011;9244;50.828;4.718;2023-11-22T01:01:37;1.07;;;1.07;;
18239;SDS011;9244;50.828;4.718;2023-11-22T01:04:08;0.20;;;0.20;;
18239;SDS011;9244;50.828;4.718;2023-11-22T01:06:34;0.60;;;0.60;;
18239;SDS011;9244;50.828;4.718;2023-11-22T01:09:04;0.63;;;0.63;;
18239;SDS011;9244;50.828;4.718;2023-11-22T01:11:29;0.67;;;0.67;;
18239;SDS011;9244;50.828;4.718;2023-11-22T01:13:55;2.20;;;1.47;;
18239;SDS011;9244;50.828;4.718;2023-11-22T01:16:23;0.10;;;0.10;;
18239;SDS011;9244;50.828;4.718;2023-11-22T01:18:48;0.53;;;0.53;;
18239;SDS011;9244;50.828;4.718;2023-11-22T01:21:17;1.50;;;0.70;;
18239;SDS011;9244;50.828;4.718;2023-11-22T01:23:44;1.30;;;1.30;;
18239;SDS011;9244;50.828;4.718;2023-11-22T01:26:10;1.37;;;1.37;;
18239;SDS011;9244;50.828;4.718;2023-11-22T01:28:37;1.57;;;1.47;;
18239;SDS011;9244;50.828;4.718;2023-11-22T01:31:05;1.17;;;1.17;;
18239;SDS011;9244;50.828;4.718;2023-11-22T01:33:31;2.63;;;1.53;;
18239;SDS011;9244;50.828;4.718;2023-11-22T01:36:01;0.60;;;0.60;;
18239;SDS011;9244;50.828;4.718;2023-11-22T01:38:27;0.40;;;0.40;;
18239;SDS011;9244;50.828;4.718;2023-11-22T01:40:52;0.80;;;0.80;;
18239;SDS011;9244;50.828;4.718;2023-11-22T01:43:19;1.63;;;1.53;;
18239;SDS011;9244;50.828;4.718;2023-11-22T01:45:46;0.93;;;0.93;;
18239;SDS011;9244;50.828;4.718;2023-11-22T01:48:14;0.30;;;0.30;;
18239;SDS011;9244;50.828;4.718;2023-11-22T01:50:40;2.50;;;2.40;;
18239;SDS011;9244;50.828;4.718;2023-11-22T01:53:10;0.60;;;0.60;;
18239;SDS011;9244;50.828;4.718;2023-11-22T01:55:38;0.87;;;0.87;;
18239;SDS011;9244;50.828;4.718;2023-11-22T01:58:05;0.23;;;0.23;;
18239;SDS011;9244;50.828;4.718;2023-11-22T02:00:32;0.20;;;0.20;;
18239;SDS011;9244;50.828;4.718;2023-11-22T02:03:06;0.47;;;0.47;;
18239;SDS011;9244;50.828;4.718;2023-11-22T02:05:32;1.57;;;1.50;;
18239;SDS011;9244;50.828;4.718;2023-11-22T02:08:01;0.10;;;0.10;;
18239;SDS011;9244;50.828;4.718;2023-11-22T02:10:26;1.17;;;1.17;;
18239;SDS011;9244;50.828;4.718;2023-11-22T02:12:55;0.37;;;0.37;;
18239;SDS011;9244;50.828;4.718;2023-11-22T02:15:21;0.40;;;0.40;;
18239;SDS011;9244;50.828;4.718;2023-11-22T02:17:50;2.00;;;0.63;;
18239;SDS011;9244;50.828;4.718;2023-11-22T02:20:16;0.40;;;0.40;;
18239;SDS011;9244;50.828;4.718;2023-11-22T02:22:42;0.20;;;0.20;;
18239;SDS011;9244;50.828;4.718;2023-11-22T02:25:11;1.70;;;1.27;;
18239;SDS011;9244;50.828;4.718;2023-11-22T02:27:37;0.40;;;0.40;;
18239;SDS011;9244;50.828;4.718;2023-11-22T02:30:05;0.80;;;0.80;;
18239;SDS011;9244;50.828;4.718;2023-11-22T02:32:33;2.50;;;2.40;;
18239;SDS011;9244;50.828;4.718;2023-11-22T02:35:01;0.20;;;0.20;;
18239;SDS011;9244;50.828;4.718;2023-11-22T02:37:29;0.30;;;0.30;;
18239;SDS011;9244;50.828;4.718;2023-11-22T02:42:43;0.20;;;0.20;;
18239;SDS011;9244;50.828;4.718;2023-11-22T02:45:11;0.40;;;0.40;;
18239;SDS011;9244;50.828;4.718;2023-11-22T02:47:39;0.73;;;0.30;;
18239;SDS011;9244;50.828;4.718;2023-11-22T02:50:05;3.10;;;2.90;;
18239;SDS011;9244;50.828;4.718;2023-11-22T02:52:36;0.87;;;0.87;;
18239;SDS011;9244;50.828;4.718;2023-11-22T02:55:02;2.47;;;1.43;;
18239;SDS011;9244;50.828;4.718;2023-11-22T02:57:30;0.83;;;0.83;;
18239;SDS011;9244;50.828;4.718;2023-11-22T02:59:58;0.77;;;0.77;;
18239;SDS011;9244;50.828;4.718;2023-11-22T03:02:24;1.10;;;1.10;;
18239;SDS011;9244;50.828;4.718;2023-11-22T03:04:54;0.77;;;0.77;;
18239;SDS011;9244;50.828;4.718;2023-11-22T03:07:22;0.40;;;0.40;;
18239;SDS011;9244;50.828;4.718;2023-11-22T03:09:48;0.20;;;0.20;;
18239;SDS011;9244;50.828;4.718;2023-11-22T03:12:15;0.40;;;0.40;;
18239;SDS011;9244;50.828;4.718;2023-11-22T03:14:47;1.20;;;1.20;;
18239;SDS011;9244;50.828;4.718;2023-11-22T03:17:14;0.50;;;0.50;;
18239;SDS011;9244;50.828;4.718;2023-11-22T03:19:40;2.07;;;1.97;;
18239;SDS011;9244;50.828;4.718;2023-11-22T03:22:06;4.43;;;2.23;;
18239;SDS011;9244;50.828;4.718;2023-11-22T03:24:35;1.73;;;1.63;;
18239;SDS011;9244;50.828;4.718;2023-11-22T03:27:02;2.57;;;2.40;;
18239;SDS011;9244;50.828;4.718;2023-11-22T03:29:28;0.37;;;0.37;;
18239;SDS011;9244;50.828;4.718;2023-11-22T03:31:54;2.47;;;1.90;;
18239;SDS011;9244;50.828;4.718;2023-11-22T03:34:20;1.67;;;1.63;;
18239;SDS011;9244;50.828;4.718;2023-11-22T03:36:46;0.50;;;0.50;;
18239;SDS011;9244;50.828;4.718;2023-11-22T03:39:17;2.10;;;1.10;;
18239;SDS011;9244;50.828;4.718;2023-11-22T03:41:43;0.87;;;0.87;;
18239;SDS011;9244;50.828;4.718;2023-11-22T03:44:09;1.43;;;1.33;;
18239;SDS011;9244;50.828;4.718;2023-11-22T03:46:35;2.50;;;2.13;;
18239;SDS011;9244;50.828;4.718;2023-11-22T03:49:02;0.83;;;0.83;;
18239;SDS011;9244;50.828;4.718;2023-11-22T03:51:36;0.87;;;0.87;;
18239;SDS011;9244;50.828;4.718;2023-11-22T03:54:03;0.60;;;0.60;;
18239;SDS011;9244;50.828;4.718;2023-11-22T03:56:34;1.00;;;1.00;;
18239;SDS011;9244;50.828;4.718;2023-11-22T03:59:00;1.23;;;1.13;;
18239;SDS011;9244;50.828;4.718;2023-11-22T04:01:31;2.30;;;1.40;;
18239;SDS011;9244;50.828;4.718;2023-11-22T04:03:59;1.07;;;1.07;;
18239;SDS011;9244;50.828;4.718;2023-11-22T04:06:27;0.73;;;0.67;;
18239;SDS011;9244;50.828;4.718;2023-11-22T04:08:52;0.10;;;0.10;;
18239;SDS011;9244;50.828;4.718;2023-11-22T04:11:18;1.60;;;1.50;;
18239;SDS011;9244;50.828;4.718;2023-11-22T04:13:47;0.20;;;0.20;;
18239;SDS011;9244;50.828;4.718;2023-11-22T04:16:15;0.30;;;0.30;;
18239;SDS011;9244;50.828;4.718;2023-11-22T04:18:44;0.30;;;0.30;;
18239;SDS011;9244;50.828;4.718;2023-11-22T04:21:12;2.23;;;1.97;;
18239;SDS011;9244;50.828;4.718;2023-11-22T04:23:38;0.67;;;0.67;;
18239;SDS011;9244;50.828;4.718;2023-11-22T04:26:04;1.23;;;1.23;;
18239;SDS011;9244;50.828;4.718;2023-11-22T04:28:32;0.10;;;0.10;;
18239;SDS011;9244;50.828;4.718;2023-11-22T04:30:58;0.87;;;0.87;;
18239;SDS011;9244;50.828;4.718;2023-11-22T04:33:24;1.43;;;1.33;;
18239;SDS011;9244;50.828;4.718;2023-11-22T04:35:53;0.63;;;0.63;;
18239;SDS011;9244;50.828;4.718;2023-11-22T04:38:18;0.20;;;0.20;;
18239;SDS011;9244;50.828;4.718;2023-11-22T04:40:44;1.67;;;1.07;;
18239;SDS011;9244;50.828;4.718;2023-11-22T04:43:10;0.33;;;0.33;;
18239;SDS011;9244;50.828;4.718;2023-11-22T04:45:36;1.73;;;0.97;;
18239;SDS011;9244;50.828;4.718;2023-11-22T04:48:02;0.37;;;0.37;;
18239;SDS011;9244;50.828;4.718;2023-11-22T04:50:29;0.43;;;0.43;;
18239;SDS011;9244;50.828;4.718;2023-11-22T04:52:57;0.30;;;0.30;;
18239;SDS011;9244;50.828;4.718;2023-11-22T04:55:23;0.60;;;0.60;;
18239;SDS011;9244;50.828;4.718;2023-11-22T04:57:50;0.13;;;0.13;;
18239;SDS011;9244;50.828;4.718;2023-11-22T05:00:17;1.37;;;1.27;;
18239;SDS011;9244;50.828;4.718;2023-11-22T05:02:43;0.40;;;0.40;;
18239;SDS011;9244;50.828;4.718;2023-11-22T05:05:11;0.40;;;0.40;;
18239;SDS011;9244;50.828;4.718;2023-11-22T05:07:37;1.80;;;1.70;;
18239;SDS011;9244;50.828;4.718;2023-11-22T05:10:03;1.17;;;1.10;;
18239;SDS011;9244;50.828;4.718;2023-11-22T05:12:30;0.63;;;0.63;;
18239;SDS011;9244;50.828;4.718;2023-11-22T05:14:56;1.07;;;1.07;;
18239;SDS011;9244;50.828;4.718;2023-11-22T05:17:22;3.90;;;2.63;;
18239;SDS011;9244;50.828;4.718;2023-11-22T05:19:49;0.77;;;0.77;;
18239;SDS011;9244;50.828;4.718;2023-11-22T05:22:15;0.80;;;0.80;;
18239;SDS011;9244;50.828;4.718;2023-11-22T05:24:44;0.90;;;0.90;;
18239;SDS011;9244;50.828;4.718;2023-11-22T05:27:09;1.77;;;1.67;;
18239;SDS011;9244;50.828;4.718;2023-11-22T05:29:35;1.50;;;1.40;;
18239;SDS011;9244;50.828;4.718;2023-11-22T05:32:01;0.40;;;0.40;;
18239;SDS011;9244;50.828;4.718;2023-11-22T05:34:27;0.30;;;0.30;;
18239;SDS011;9244;50.828;4.718;2023-11-22T05:36:57;1.50;;;1.50;;
18239;SDS011;9244;50.828;4.718;2023-11-22T05:39:25;2.70;;;1.33;;
18239;SDS011;9244;50.828;4.718;2023-11-22T05:41:53;0.73;;;0.73;;
18239;SDS011;9244;50.828;4.718;2023-11-22T05:44:21;0.63;;;0.63;;
18239;SDS011;9244;50.828;4.718;2023-11-22T05:46:47;2.20;;;2.00;;
18239;SDS011;9244;50.828;4.718;2023-11-22T05:49:14;0.40;;;0.40;;
18239;SDS011;9244;50.828;4.718;2023-11-22T05:51:40;0.10;;;0.10;;
18239;SDS011;9244;50.828;4.718;2023-11-22T05:54:08;2.70;;;1.10;;
18239;SDS011;9244;50.828;4.718;2023-11-22T05:56:37;0.10;;;0.10;;
18239;SDS011;9244;50.828;4.718;2023-11-22T05:59:03;1.77;;;1.77;;
18239;SDS011;9244;50.828;4.718;2023-11-22T06:01:29;1.40;;;0.93;;
18239;SDS011;9244;50.828;4.718;2023-11-22T06:03:55;0.20;;;0.20;;
18239;SDS011;9244;50.828;4.718;2023-11-22T06:06:21;0.20;;;0.20;;
18239;SDS011;9244;50.828;4.718;2023-11-22T06:08:52;0.27;;;0.27;;
18239;SDS011;9244;50.828;4.718;2023-11-22T06:11:18;0.43;;;0.43;;
18239;SDS011;9244;50.828;4.718;2023-11-22T06:13:46;1.60;;;1.50;;
18239;SDS011;9244;50.828;4.718;2023-11-22T06:16:12;4.10;;;2.00;;
18239;SDS011;9244;50.828;4.718;2023-11-22T06:18:38;0.20;;;0.20;;
18239;SDS011;9244;50.828;4.718;2023-11-22T06:21:08;0.10;;;0.10;;
18239;SDS011;9244;50.828;4.718;2023-11-22T06:23:37;1.83;;;1.53;;
18239;SDS011;9244;50.828;4.718;2023-11-22T06:26:02;0.30;;;0.30;;
18239;SDS011;9244;50.828;4.718;2023-11-22T06:28:28;1.07;;;1.07;;
18239;SDS011;9244;50.828;4.718;2023-11-22T06:30:56;2.90;;;2.10;;
18239;SDS011;9244;50.828;4.718;2023-11-22T06:33:22;0.77;;;0.70;;
18239;SDS011;9244;50.828;4.718;2023-11-22T06:35:50;0.40;;;0.40;;
18239;SDS011;9244;50.828;4.718;2023-11-22T06:38:16;0.10;;;0.10;;
18239;SDS011;9244;50.828;4.718;2023-11-22T06:40:41;1.80;;;1.13;;
18239;SDS011;9244;50.828;4.718;2023-11-22T06:43:07;0.23;;;0.23;;
18239;SDS011;9244;50.828;4.718;2023-11-22T06:45:33;1.00;;;1.00;;
18239;SDS011;9244;50.828;4.718;2023-11-22T06:48:01;0.30;;;0.30;;
18239;SDS011;9244;50.828;4.718;2023-11-22T06:50:28;7.73;;;2.53;;
18239;SDS011;9244;50.828;4.718;2023-11-22T06:52:56;0.50;;;0.50;;
18239;SDS011;9244;50.828;4.718;2023-11-22T06:55:28;0.83;;;0.83;;
18239;SDS011;9244;50.828;4.718;2023-11-22T06:57:55;0.60;;;0.60;;
18239;SDS011;9244;50.828;4.718;2023-11-22T07:00:21;1.47;;;1.47;;
18239;SDS011;9244;50.828;4.718;2023-11-22T07:02:47;2.80;;;2.63;;
18239;SDS011;9244;50.828;4.718;2023-11-22T07:05:12;2.07;;;1.80;;
18239;SDS011;9244;50.828;4.718;2023-11-22T07:07:39;1.13;;;1.13;;
18239;SDS011;9244;50.828;4.718;2023-11-22T07:10:05;0.30;;;0.30;;
18239;SDS011;9244;50.828;4.718;2023-11-22T07:12:34;0.40;;;0.40;;
18239;SDS011;9244;50.828;4.718;2023-11-22T07:15:02;4.10;;;2.67;;
18239;SDS011;9244;50.828;4.718;2023-11-22T07:17:30;1.07;;;1.07;;
18239;SDS011;9244;50.828;4.718;2023-11-22T07:19:58;1.50;;;1.50;;
18239;SDS011;9244;50.828;4.718;2023-11-22T07:22:33;0.27;;;0.27;;
18239;SDS011;9244;50.828;4.718;2023-11-22T07:25:04;1.33;;;1.33;;
18239;SDS011;9244;50.828;4.718;2023-11-22T07:27:34;1.20;;;1.17;;
18239;SDS011;9244;50.828;4.718;2023-11-22T07:30:00;0.27;;;0.27;;
18239;SDS011;9244;50.828;4.718;2023-11-22T07:32:26;0.30;;;0.30;;
18239;SDS011;9244;50.828;4.718;2023-11-22T07:34:54;0.40;;;0.40;;
18239;SDS011;9244;50.828;4.718;2023-11-22T07:37:21;1.63;;;1.53;;
18239;SDS011;9244;50.828;4.718;2023-11-22T07:39:46;0.63;;;0.63;;
18239;SDS011;9244;50.828;4.718;2023-11-22T07:42:12;0.33;;;0.33;;
18239;SDS011;9244;50.828;4.718;2023-11-22T07:44:40;0.20;;;0.20;;
18239;SDS011;9244;50.828;4.718;2023-11-22T07:47:08;0.63;;;0.37;;
18239;SDS011;9244;50.828;4.718;2023-11-22T07:49:38;1.57;;;1.53;;
18239;SDS011;9244;50.828;4.718;2023-11-22T07:52:07;1.67;;;1.57;;
18239;SDS011;9244;50.828;4.718;2023-11-22T07:54:32;1.87;;;1.77;;
18239;SDS011;9244;50.828;4.718;2023-11-22T07:57:00;0.30;;;0.30;;
18239;SDS011;9244;50.828;4.718;2023-11-22T07:59:26;0.63;;;0.63;;
18239;SDS011;9244;50.828;4.718;2023-11-22T08:01:52;1.70;;;1.60;;
18239;SDS011;9244;50.828;4.718;2023-11-22T08:04:18;0.10;;;0.10;;
18239;SDS011;9244;50.828;4.718;2023-11-22T08:06:44;1.33;;;1.23;;
18239;SDS011;9244;50.828;4.718;2023-11-22T08:09:10;0.27;;;0.27;;
18239;SDS011;9244;50.828;4.718;2023-11-22T08:11:36;1.17;;;1.10;;
18239;SDS011;9244;50.828;4.718;2023-11-22T08:14:02;0.20;;;0.20;;
18239;SDS011;9244;50.828;4.718;2023-11-22T08:16:28;1.50;;;1.50;;
18239;SDS011;9244;50.828;4.718;2023-11-22T08:18:57;1.50;;;1.50;;
18239;SDS011;9244;50.828;4.718;2023-11-22T08:21:25;0.90;;;0.90;;
18239;SDS011;9244;50.828;4.718;2023-11-22T08:23:50;0.57;;;0.57;;
18239;SDS011;9244;50.828;4.718;2023-11-22T08:26:18;2.43;;;2.10;;
18239;SDS011;9244;50.828;4.718;2023-11-22T08:28:47;0.47;;;0.47;;
18239;SDS011;9244;50.828;4.718;2023-11-22T08:31:14;1.80;;;1.70;;
18239;SDS011;9244;50.828;4.718;2023-11-22T08:33:42;1.57;;;1.57;;
18239;SDS011;9244;50.828;4.718;2023-11-22T08:36:08;2.17;;;1.40;;
18239;SDS011;9244;50.828;4.718;2023-11-22T08:38:34;0.57;;;0.57;;
18239;SDS011;9244;50.828;4.718;2023-11-22T08:41:01;1.03;;;1.03;;
18239;SDS011;9244;50.828;4.718;2023-11-22T08:43:30;2.37;;;2.17;;
18239;SDS011;9244;50.828;4.718;2023-11-22T08:46:00;4.23;;;2.30;;
18239;SDS011;9244;50.828;4.718;2023-11-22T08:48:34;1.47;;;1.33;;
18239;SDS011;9244;50.828;4.718;2023-11-22T08:51:00;1.27;;;0.93;;
18239;SDS011;9244;50.828;4.718;2023-11-22T08:53:26;4.37;;;2.27;;
18239;SDS011;9244;50.828;4.718;2023-11-22T08:55:55;1.27;;;1.27;;
18239;SDS011;9244;50.828;4.718;2023-11-22T08:58:21;2.20;;;2.00;;
18239;SDS011;9244;50.828;4.718;2023-11-22T09:00:47;2.60;;;1.87;;
18239;SDS011;9244;50.828;4.718;2023-11-22T09:03:13;2.77;;;2.57;;
18239;SDS011;9244;50.828;4.718;2023-11-22T09:05:39;4.50;;;2.57;;
18239;SDS011;9244;50.828;4.718;2023-11-22T09:08:05;0.90;;;0.83;;
18239;SDS011;9244;50.828;4.718;2023-11-22T09:10:31;2.23;;;1.87;;
18239;SDS011;9244;50.828;4.718;2023-11-22T09:13:00;0.93;;;0.93;;
18239;SDS011;9244;50.828;4.718;2023-11-22T09:15:32;2.07;;;1.90;;
18239;SDS011;9244;50.828;4.718;2023-11-22T09:18:01;1.87;;;1.70;;
18239;SDS011;9244;50.828;4.718;2023-11-22T09:20:32;2.77;;;2.33;;
18239;SDS011;9244;50.828;4.718;2023-11-22T09:22:57;0.87;;;0.87;;
18239;SDS011;9244;50.828;4.718;2023-11-22T09:25:24;1.07;;;1.07;;
18239;SDS011;9244;50.828;4.718;2023-11-22T09:27:51;2.53;;;2.27;;
18239;SDS011;9244;50.828;4.718;2023-11-22T09:30:21;0.93;;;0.93;;
18239;SDS011;9244;50.828;4.718;2023-11-22T09:33:09;1.13;;;1.03;;
18239;SDS011;9244;50.828;4.718;2023-11-22T09:35:43;0.40;;;0.40;;
18239;SDS011;9244;50.828;4.718;2023-11-22T09:38:11;0.73;;;0.73;;
18239;SDS011;9244;50.828;4.718;2023-11-22T09:40:40;1.37;;;1.37;;
18239;SDS011;9244;50.828;4.718;2023-11-22T09:43:07;0.90;;;0.90;;
18239;SDS011;9244;50.828;4.718;2023-11-22T09:45:35;0.13;;;0.13;;
18239;SDS011;9244;50.828;4.718;2023-11-22T09:48:07;2.57;;;2.37;;
18239;SDS011;9244;50.828;4.718;2023-11-22T09:50:44;0.90;;;0.67;;
18239;SDS011;9244;50.828;4.718;2023-11-22T09:56:25;1.50;;;0.80;;
18239;SDS011;9244;50.828;4.718;2023-11-22T09:58:54;0.47;;;0.47;;
18239;SDS011;9244;50.828;4.718;2023-11-22T10:01:25;2.70;;;2.60;;
18239;SDS011;9244;50.828;4.718;2023-11-22T10:04:04;1.30;;;1.23;;
18239;SDS011;9244;50.828;4.718;2023-11-22T10:06:35;0.50;;;0.50;;
18239;SDS011;9244;50.828;4.718;2023-11-22T10:09:03;0.20;;;0.20;;
18239;SDS011;9244;50.828;4.718;2023-11-22T10:11:35;0.20;;;0.20;;
18239;SDS011;9244;50.828;4.718;2023-11-22T10:14:04;0.70;;;0.70;;
18239;SDS011;9244;50.828;4.718;2023-11-22T10:16:29;1.10;;;1.03;;
18239;SDS011;9244;50.828;4.718;2023-11-22T10:18:55;0.60;;;0.60;;
18239;SDS011;9244;50.828;4.718;2023-11-22T10:21:23;0.97;;;0.97;;
18239;SDS011;9244;50.828;4.718;2023-11-22T10:23:54;1.40;;;1.37;;
18239;SDS011;9244;50.828;4.718;2023-11-22T10:26:31;0.80;;;0.80;;
18239;SDS011;9244;50.828;4.718;2023-11-22T10:28:58;2.30;;;1.27;;
18239;SDS011;9244;50.828;4.718;2023-11-22T10:31:26;0.40;;;0.40;;
18239;SDS011;9244;50.828;4.718;2023-11-22T10:33:53;2.03;;;0.77;;
18239;SDS011;9244;50.828;4.718;2023-11-22T10:36:20;1.13;;;1.13;;
18239;SDS011;9244;50.828;4.718;2023-11-22T10:38:47;30.03;;;22.10;;
18239;SDS011;9244;50.828;4.718;2023-11-22T10:41:13;27.40;;;21.40;;
18239;SDS011;9244;50.828;4.718;2023-11-22T10:43:41;24.07;;;20.07;;
18239;SDS011;9244;50.828;4.718;2023-11-22T10:46:09;27.30;;;21.63;;
18239;SDS011;9244;50.828;4.718;2023-11-22T10:48:38;23.50;;;18.43;;
18239;SDS011;9244;50.828;4.718;2023-11-22T10:51:04;22.90;;;16.87;;
18239;SDS011;9244;50.828;4.718;2023-11-22T10:53:34;24.97;;;18.70;;
18239;SDS011;9244;50.828;4.718;2023-11-22T10:56:07;23.20;;;17.60;;
18239;SDS011;9244;50.828;4.718;2023-11-22T10:58:46;21.47;;;17.87;;
18239;SDS011;9244;50.828;4.718;2023-11-22T11:01:34;22.10;;;17.40;;
18239;SDS011;9244;50.828;4.718;2023-11-22T11:04:02;21.30;;;17.17;;
18239;SDS011;9244;50.828;4.718;2023-11-22T11:06:33;19.33;;;15.83;;
18239;SDS011;9244;50.828;4.718;2023-11-22T11:09:02;20.30;;;15.63;;
18239;SDS011;9244;50.828;4.718;2023-11-22T11:11:36;16.47;;;14.47;;
18239;SDS011;9244;50.828;4.718;2023-11-22T11:14:03;16.33;;;14.60;;
18239;SDS011;9244;50.828;4.718;2023-11-22T11:16:37;16.73;;;13.20;;
18239;SDS011;9244;50.828;4.718;2023-11-22T11:19:06;17.03;;;14.67;;
18239;SDS011;9244;50.828;4.718;2023-11-22T11:21:36;18.13;;;15.77;;
18239;SDS011;9244;50.828;4.718;2023-11-22T11:24:02;17.20;;;14.77;;
18239;SDS011;9244;50.828;4.718;2023-11-22T11:26:33;15.03;;;13.43;;
18239;SDS011;9244;50.828;4.718;2023-11-22T11:29:02;15.33;;;13.73;;
18239;SDS011;9244;50.828;4.718;2023-11-22T11:31:32;16.97;;;13.67;;
18239;SDS011;9244;50.828;4.718;2023-11-22T11:34:07;18.77;;;14.90;;
18239;SDS011;9244;50.828;4.718;2023-11-22T11:36:36;16.80;;;13.03;;
18239;SDS011;9244;50.828;4.718;2023-11-22T11:39:06;14.87;;;12.77;;
18239;SDS011;9244;50.828;4.718;2023-11-22T11:41:40;13.40;;;12.00;;
18239;SDS011;9244;50.828;4.718;2023-11-22T11:44:09;14.30;;;12.43;;
18239;SDS011;9244;50.828;4.718;2023-11-22T11:46:38;13.00;;;11.60;;
18239;SDS011;9244;50.828;4.718;2023-11-22T11:49:07;13.47;;;11.80;;
18239;SDS011;9244;50.828;4.718;2023-11-22T11:51:38;14.43;;;12.67;;
18239;SDS011;9244;50.828;4.718;2023-11-22T11:54:07;15.03;;;13.43;;
18239;SDS011;9244;50.828;4.718;2023-11-22T11:56:34;14.30;;;12.00;;
18239;SDS011;9244;50.828;4.718;2023-11-22T11:59:00;13.80;;;11.37;;
18239;SDS011;9244;50.828;4.718;2023-11-22T12:01:30;14.40;;;12.90;;
18239;SDS011;9244;50.828;4.718;2023-11-22T12:03:59;13.40;;;12.10;;
18239;SDS011;9244;50.828;4.718;2023-11-22T12:06:28;15.17;;;12.30;;
18239;SDS011;9244;50.828;4.718;2023-11-22T12:08:56;14.17;;;12.30;;
18239;SDS011;9244;50.828;4.718;2023-11-22T12:11:23;13.70;;;12.30;;
18239;SDS011;9244;50.828;4.718;2023-11-22T12:13:48;13.47;;;12.07;;
18239;SDS011;9244;50.828;4.718;2023-11-22T12:16:17;13.90;;;12.43;;
18239;SDS011;9244;50.828;4.718;2023-11-22T12:18:43;14.00;;;12.50;;
18239;SDS011;9244;50.828;4.718;2023-11-22T12:21:10;15.37;;;13.77;;
18239;SDS011;9244;50.828;4.718;2023-11-22T12:23:45;13.27;;;11.87;;
18239;SDS011;9244;50.828;4.718;2023-11-22T12:26:13;13.43;;;11.17;;
18239;SDS011;9244;50.828;4.718;2023-11-22T12:28:40;14.40;;;12.37;;
18239;SDS011;9244;50.828;4.718;2023-11-22T12:31:10;14.10;;;11.83;;
18239;SDS011;9244;50.828;4.718;2023-11-22T12:33:42;12.60;;;11.20;;
18239;SDS011;9244;50.828;4.718;2023-11-22T12:36:09;13.00;;;11.60;;
18239;SDS011;9244;50.828;4.718;2023-11-22T12:38:36;12.47;;;11.17;;
18239;SDS011;9244;50.828;4.718;2023-11-22T12:41:02;13.77;;;12.33;;
18239;SDS011;9244;50.828;4.718;2023-11-22T12:43:29;14.63;;;12.63;;
18239;SDS011;9244;50.828;4.718;2023-11-22T12:46:04;12.37;;;11.17;;
18239;SDS011;9244;50.828;4.718;2023-11-22T12:48:35;13.03;;;11.47;;
18239;SDS011;9244;50.828;4.718;2023-11-22T12:51:01;12.97;;;11.33;;
18239;SDS011;9244;50.828;4.718;2023-11-22T12:53:27;16.47;;;12.17;;
18239;SDS011;9244;50.828;4.718;2023-11-22T12:55:58;14.60;;;11.43;;
18239;SDS011;9244;50.828;4.718;2023-11-22T12:58:24;13.23;;;11.23;;
18239;SDS011;9244;50.828;4.718;2023-11-22T13:00:53;13.43;;;12.03;;
18239;SDS011;9244;50.828;4.718;2023-11-22T13:03:23;13.60;;;11.60;;
18239;SDS011;9244;50.828;4.718;2023-11-22T13:05:53;13.07;;;11.67;;
18239;SDS011;9244;50.828;4.718;2023-11-22T13:08:22;15.77;;;13.27;;
18239;SDS011;9244;50.828;4.718;2023-11-22T13:10:49;13.47;;;10.77;;
18239;SDS011;9244;50.828;4.718;2023-11-22T13:13:24;12.60;;;11.13;;
18239;SDS011;9244;50.828;4.718;2023-11-22T13:15:51;14.33;;;12.83;;
18239;SDS011;9244;50.828;4.718;2023-11-22T13:18:17;12.83;;;11.13;;
18239;SDS011;9244;50.828;4.718;2023-11-22T13:20:44;14.30;;;11.97;;
18239;SDS011;9244;50.828;4.718;2023-11-22T13:23:10;13.30;;;11.57;;
18239;SDS011;9244;50.828;4.718;2023-11-22T13:25:37;13.57;;;11.60;;
18239;SDS011;9244;50.828;4.718;2023-11-22T13:28:02;12.20;;;10.90;;
18239;SDS011;9244;50.828;4.718;2023-11-22T13:30:29;12.47;;;10.77;;
18239;SDS011;9244;50.828;4.718;2023-11-22T13:32:55;14.83;;;12.53;;
18239;SDS011;9244;50.828;4.718;2023-11-22T13:35:22;13.37;;;11.97;;
18239;SDS011;9244;50.828;4.718;2023-11-22T13:37:58;13.43;;;11.57;;
18239;SDS011;9244;50.828;4.718;2023-11-22T13:40:27;13.00;;;11.60;;
18239;SDS011;9244;50.828;4.718;2023-11-22T13:42:57;12.10;;;10.20;;
18239;SDS011;9244;50.828;4.718;2023-11-22T13:45:25;11.57;;;10.37;;
18239;SDS011;9244;50.828;4.718;2023-11-22T13:47:54;11.87;;;10.33;;
18239;SDS011;9244;50.828;4.718;2023-11-22T13:50:28;12.40;;;11.03;;
18239;SDS011;9244;50.828;4.718;2023-11-22T13:52:54;12.57;;;10.93;;
18239;SDS011;9244;50.828;4.718;2023-11-22T13:55:21;11.40;;;10.27;;
18239;SDS011;9244;50.828;4.718;2023-11-22T13:57:53;12.30;;;11.13;;
18239;SDS011;9244;50.828;4.718;2023-11-22T14:00:25;12.30;;;11.03;;
18239;SDS011;9244;50.828;4.718;2023-11-22T14:02:54;13.30;;;11.57;;
18239;SDS011;9244;50.828;4.718;2023-11-22T14:05:25;12.87;;;11.57;;
18239;SDS011;9244;50.828;4.718;2023-11-22T14:07:53;12.37;;;10.80;;
18239;SDS011;9244;50.828;4.718;2023-11-22T14:10:19;13.00;;;11.27;;
18239;SDS011;9244;50.828;4.718;2023-11-22T14:12:47;16.20;;;11.73;;
18239;SDS011;9244;50.828;4.718;2023-11-22T14:15:16;14.23;;;10.60;;
18239;SDS011;9244;50.828;4.718;2023-11-22T14:17:45;12.43;;;10.73;;
18239;SDS011;9244;50.828;4.718;2023-11-22T14:20:14;14.07;;;10.93;;
18239;SDS011;9244;50.828;4.718;2023-11-22T14:22:40;14.17;;;12.03;;
18239;SDS011;9244;50.828;4.718;2023-11-22T14:25:07;13.90;;;11.47;;
18239;SDS011;9244;50.828;4.718;2023-11-22T14:27:38;15.43;;;12.37;;
18239;SDS011;9244;50.828;4.718;2023-11-22T14:30:10;18.13;;;13.23;;
18239;SDS011;9244;50.828;4.718;2023-11-22T14:32:42;15.77;;;12.30;;
18239;SDS011;9244;50.828;4.718;2023-11-22T14:35:10;14.53;;;12.77;;
18239;SDS011;9244;50.828;4.718;2023-11-22T14:37:39;15.60;;;12.80;;
18239;SDS011;9244;50.828;4.718;2023-11-22T14:40:05;16.23;;;12.83;;
18239;SDS011;9244;50.828;4.718;2023-11-22T14:42:47;13.00;;;11.37;;
18239;SDS011;9244;50.828;4.718;2023-11-22T14:45:15;14.63;;;11.90;;
18239;SDS011;9244;50.828;4.718;2023-11-22T14:47:45;15.53;;;12.37;;
18239;SDS011;9244;50.828;4.718;2023-11-22T14:50:11;13.20;;;11.07;;
18239;SDS011;9244;50.828;4.718;2023-11-22T14:52:39;13.00;;;10.90;;
18239;SDS011;9244;50.828;4.718;2023-11-22T14:55:09;13.10;;;10.67;;
18239;SDS011;9244;50.828;4.718;2023-11-22T14:57:37;13.13;;;11.03;;
18239;SDS011;9244;50.828;4.718;2023-11-22T15:00:04;12.53;;;10.53;;
18239;SDS011;9244;50.828;4.718;2023-11-22T15:02:34;17.00;;;11.03;;